createdAt,value
2023-03-30T00:00:30.151Z,999.89
2023-03-30T00:01:30.150Z,999.84
2023-03-30T00:02:30.165Z,999.82
2023-03-30T00:03:30.244Z,999.83
2023-03-30T00:04:30.297Z,999.82
2023-03-30T00:05:30.106Z,999.79
2023-03-30T00:06:30.091Z,999.78
2023-03-30T00:07:30.078Z,999.65
2023-03-30T00:08:30.094Z,999.73
2023-03-30T00:09:30.059Z,999.70
2023-03-30T00:10:30.045Z,999.74
2023-03-30T00:11:30.026Z,999.78
2023-03-30T00:12:30.015Z,999.68
2023-03-30T00:13:30.017Z,999.68
2023-03-30T00:14:29.997Z,999.67
2023-03-30T00:15:30.016Z,999.67
2023-03-30T00:16:29.991Z,999.60
2023-03-30T00:17:29.978Z,999.55
2023-03-30T00:18:29.977Z,999.62
2023-03-30T00:19:29.936Z,999.59
2023-03-30T00:20:30.001Z,999.54
2023-03-30T00:21:29.916Z,999.47
2023-03-30T00:22:29.899Z,999.47
2023-03-30T00:23:29.898Z,999.48
2023-03-30T00:24:29.884Z,999.46
2023-03-30T00:25:29.870Z,999.40
2023-03-30T00:26:29.869Z,999.40
2023-03-30T00:27:29.856Z,999.41
2023-03-30T00:28:29.832Z,999.50
2023-03-30T00:29:29.833Z,999.52
2023-03-30T00:30:29.816Z,999.45
2023-03-30T00:31:29.883Z,999.42
2023-03-30T00:32:29.834Z,999.39
2023-03-30T00:33:44.087Z,999.37
2023-03-30T00:34:30.778Z,999.36
2023-03-30T00:35:29.755Z,999.35
2023-03-30T00:36:29.757Z,999.40
2023-03-30T00:37:29.787Z,999.40
2023-03-30T00:38:29.717Z,999.41
2023-03-30T00:39:29.722Z,999.32
2023-03-30T00:40:29.691Z,999.30
2023-03-30T00:41:29.690Z,999.26
2023-03-30T00:42:29.676Z,999.28
2023-03-30T00:43:29.708Z,999.21
2023-03-30T00:44:29.648Z,999.24
2023-03-30T00:45:29.642Z,999.17
2023-03-30T00:46:29.739Z,999.19
2023-03-30T00:47:29.674Z,999.12
2023-03-30T00:48:29.607Z,999.20
2023-03-30T00:49:29.599Z,999.20
2023-03-30T00:50:29.576Z,999.27
2023-03-30T00:51:29.569Z,999.36
2023-03-30T00:52:29.566Z,999.28
2023-03-30T00:53:29.564Z,999.25
2023-03-30T00:54:29.542Z,999.30
2023-03-30T00:55:29.530Z,999.30
2023-03-30T00:56:29.509Z,999.23
2023-03-30T00:57:29.575Z,999.21
2023-03-30T00:58:29.499Z,999.18
2023-03-30T00:59:29.477Z,999.18
2023-03-30T01:00:29.480Z,999.17
2023-03-30T01:01:29.593Z,999.18
2023-03-30T01:02:29.484Z,999.15
2023-03-30T01:03:29.508Z,999.08
2023-03-30T01:04:29.425Z,999.04
2023-03-30T01:05:29.413Z,998.96
2023-03-30T01:06:29.407Z,998.91
2023-03-30T01:07:29.401Z,998.89
2023-03-30T01:08:29.382Z,998.62
2023-03-30T01:09:29.374Z,998.64
2023-03-30T01:10:29.350Z,998.63
2023-03-30T01:11:29.348Z,998.65
2023-03-30T01:12:29.339Z,998.62
2023-03-30T01:13:29.319Z,998.58
2023-03-30T01:14:29.326Z,998.58
2023-03-30T01:15:29.328Z,998.59
2023-03-30T01:16:29.285Z,998.61
2023-03-30T01:17:29.304Z,998.62
2023-03-30T01:18:29.268Z,998.61
2023-03-30T01:19:29.276Z,998.67
2023-03-30T01:20:29.252Z,998.70
2023-03-30T01:21:29.234Z,998.71
2023-03-30T01:22:29.213Z,998.77
2023-03-30T01:23:29.213Z,998.81
2023-03-30T01:24:29.206Z,998.77
2023-03-30T01:25:29.189Z,998.80
2023-03-30T01:26:29.186Z,998.79
2023-03-30T01:27:29.189Z,998.84
2023-03-30T01:28:29.163Z,998.84
2023-03-30T01:29:29.151Z,998.86
2023-03-30T01:30:29.129Z,998.84
2023-03-30T01:31:29.166Z,998.77
2023-03-30T01:32:29.176Z,998.73
2023-03-30T01:33:29.101Z,998.80
2023-03-30T01:34:29.090Z,998.80
2023-03-30T01:35:29.148Z,998.76
2023-03-30T01:36:29.128Z,998.67
2023-03-30T01:37:29.043Z,998.62
2023-03-30T01:38:29.042Z,998.62
2023-03-30T01:39:29.044Z,998.53
2023-03-30T01:40:29.015Z,998.57
2023-03-30T01:41:29.000Z,998.54
2023-03-30T01:42:29.006Z,998.46
2023-03-30T01:43:28.999Z,998.47
2023-03-30T01:44:28.968Z,998.46
2023-03-30T01:45:28.958Z,998.50
2023-03-30T01:46:29.010Z,998.53
2023-03-30T01:47:28.995Z,998.51
2023-03-30T01:48:28.975Z,998.46
2023-03-30T01:49:28.920Z,998.47
2023-03-30T01:50:28.899Z,998.40
2023-03-30T01:51:28.946Z,998.42
2023-03-30T01:52:28.931Z,998.41
2023-03-30T01:53:28.866Z,998.46
2023-03-30T01:54:28.872Z,998.47
2023-03-30T01:55:28.835Z,998.50
2023-03-30T01:56:28.830Z,998.45
2023-03-30T01:57:28.867Z,998.40
2023-03-30T01:58:28.814Z,998.41
2023-03-30T01:59:28.822Z,998.39
2023-03-30T02:00:28.783Z,998.36
2023-03-30T02:01:28.796Z,998.39
2023-03-30T02:02:28.816Z,998.42
2023-03-30T02:03:28.881Z,998.35
2023-03-30T02:04:28.757Z,998.22
2023-03-30T02:05:28.750Z,998.24
2023-03-30T02:06:28.717Z,998.27
2023-03-30T02:07:28.729Z,998.20
2023-03-30T02:08:28.697Z,998.19
2023-03-30T02:09:28.687Z,998.16
2023-03-30T02:10:28.688Z,998.19
2023-03-30T02:11:28.660Z,998.24
2023-03-30T02:12:28.665Z,998.33
2023-03-30T02:13:28.634Z,998.35
2023-03-30T02:14:28.632Z,998.34
2023-03-30T02:15:28.618Z,998.43
2023-03-30T02:16:28.639Z,998.37
2023-03-30T02:17:28.634Z,998.37
2023-03-30T02:18:28.593Z,998.40
2023-03-30T02:19:28.573Z,998.35
2023-03-30T02:20:28.560Z,998.38
2023-03-30T02:21:28.572Z,998.47
2023-03-30T02:22:28.536Z,998.43
2023-03-30T02:23:28.537Z,998.44
2023-03-30T02:24:28.520Z,998.41
2023-03-30T02:25:28.501Z,998.41
2023-03-30T02:26:28.493Z,998.44
2023-03-30T02:27:28.488Z,998.45
2023-03-30T02:28:28.474Z,998.45
2023-03-30T02:29:28.453Z,998.43
2023-03-30T02:30:28.457Z,998.45
2023-03-30T02:31:28.470Z,998.50
2023-03-30T02:32:28.464Z,998.41
2023-03-30T02:33:29.000Z,998.38
2023-03-30T02:34:28.399Z,998.47
2023-03-30T02:35:28.406Z,998.44
2023-03-30T02:36:28.398Z,998.47
2023-03-30T02:37:28.377Z,998.41
2023-03-30T02:38:28.361Z,998.46
2023-03-30T02:39:28.360Z,998.43
2023-03-30T02:40:28.334Z,998.45
2023-03-30T02:41:28.337Z,998.39
2023-03-30T02:42:28.307Z,998.32
2023-03-30T02:43:28.308Z,998.30
2023-03-30T02:44:28.285Z,998.26
2023-03-30T02:45:28.381Z,998.23
2023-03-30T02:46:28.265Z,998.21
2023-03-30T02:47:28.289Z,998.22
2023-03-30T02:48:28.249Z,998.22
2023-03-30T02:49:28.226Z,998.15
2023-03-30T02:50:28.218Z,998.10
2023-03-30T02:51:28.203Z,998.09
2023-03-30T02:52:28.204Z,998.12
2023-03-30T02:53:28.193Z,998.22
2023-03-30T02:54:28.171Z,998.01
2023-03-30T02:55:28.182Z,998.01
2023-03-30T02:56:28.155Z,997.93
2023-03-30T02:57:28.210Z,998.00
2023-03-30T02:58:28.158Z,997.97
2023-03-30T02:59:28.117Z,997.91
2023-03-30T03:00:28.110Z,997.82
2023-03-30T03:01:28.209Z,997.88
2023-03-30T03:02:28.241Z,997.97
2023-03-30T03:03:28.167Z,997.96
2023-03-30T03:04:28.072Z,997.91
2023-03-30T03:05:28.055Z,998.01
2023-03-30T03:06:28.036Z,998.01
2023-03-30T03:07:28.026Z,998.03
2023-03-30T03:08:28.016Z,998.05
2023-03-30T03:09:28.012Z,998.01
2023-03-30T03:10:27.992Z,998.06
2023-03-30T03:11:28.048Z,997.98
2023-03-30T03:12:27.986Z,998.05
2023-03-30T03:13:27.974Z,998.03
2023-03-30T03:14:27.965Z,998.04
2023-03-30T03:15:27.931Z,998.07
2023-03-30T03:16:27.951Z,998.13
2023-03-30T03:17:27.940Z,998.03
2023-03-30T03:18:27.906Z,998.06
2023-03-30T03:19:27.888Z,998.07
2023-03-30T03:20:27.890Z,998.14
2023-03-30T03:21:27.861Z,998.09
2023-03-30T03:22:27.855Z,998.14
2023-03-30T03:23:27.849Z,998.05
2023-03-30T03:24:27.831Z,998.04
2023-03-30T03:25:27.825Z,998.05
2023-03-30T03:26:27.911Z,998.08
2023-03-30T03:27:27.824Z,998.00
2023-03-30T03:28:27.792Z,997.95
2023-03-30T03:29:27.799Z,997.90
2023-03-30T03:30:27.761Z,997.97
2023-03-30T03:31:27.783Z,997.93
2023-03-30T03:32:27.800Z,997.93
2023-03-30T03:33:27.734Z,997.88
2023-03-30T03:34:27.723Z,997.87
2023-03-30T03:35:27.716Z,997.85
2023-03-30T03:36:27.708Z,997.79
2023-03-30T03:37:27.682Z,997.77
2023-03-30T03:38:27.671Z,997.73
2023-03-30T03:39:27.656Z,997.85
2023-03-30T03:40:27.648Z,997.82
2023-03-30T03:41:27.654Z,997.76
2023-03-30T03:42:27.628Z,997.86
2023-03-30T03:43:27.653Z,997.77
2023-03-30T03:44:27.603Z,997.81
2023-03-30T03:45:27.587Z,997.91
2023-03-30T03:46:27.653Z,997.96
2023-03-30T03:47:27.604Z,997.91
2023-03-30T03:48:27.556Z,997.87
2023-03-30T03:49:27.543Z,997.91
2023-03-30T03:50:27.535Z,997.96
2023-03-30T03:51:27.520Z,997.91
2023-03-30T03:52:27.516Z,997.99
2023-03-30T03:53:27.526Z,997.93
2023-03-30T03:54:27.492Z,997.92
2023-03-30T03:55:27.475Z,997.91
2023-03-30T03:56:27.468Z,997.83
2023-03-30T03:57:27.535Z,997.79
2023-03-30T03:58:27.454Z,997.80
2023-03-30T03:59:27.459Z,997.78
2023-03-30T04:00:27.448Z,997.84
2023-03-30T04:01:27.411Z,997.83
2023-03-30T04:02:27.493Z,997.84
2023-03-30T04:03:27.396Z,997.88
2023-03-30T04:04:27.426Z,997.88
2023-03-30T04:05:27.374Z,997.96
2023-03-30T04:06:27.375Z,997.96
2023-03-30T04:07:27.338Z,998.00
2023-03-30T04:08:27.340Z,997.92
2023-03-30T04:09:27.346Z,997.95
2023-03-30T04:10:27.314Z,998.00
2023-03-30T04:11:27.324Z,998.03
2023-03-30T04:12:27.286Z,998.08
2023-03-30T04:13:27.278Z,998.04
2023-03-30T04:14:27.275Z,997.97
2023-03-30T04:15:27.320Z,998.08
2023-03-30T04:16:27.264Z,998.05
2023-03-30T04:17:27.259Z,998.01
2023-03-30T04:18:27.232Z,998.05
2023-03-30T04:19:27.213Z,998.01
2023-03-30T04:20:27.197Z,998.04
2023-03-30T04:21:27.184Z,997.95
2023-03-30T04:22:27.176Z,997.94
2023-03-30T04:23:27.163Z,997.91
2023-03-30T04:24:27.156Z,997.95
2023-03-30T04:25:27.134Z,997.87
2023-03-30T04:26:27.130Z,997.89
2023-03-30T04:27:27.111Z,997.90
2023-03-30T04:28:27.159Z,997.99
2023-03-30T04:29:27.104Z,997.75
2023-03-30T04:30:27.080Z,997.78
2023-03-30T04:31:27.105Z,997.81
2023-03-30T04:32:27.114Z,997.80
2023-03-30T04:33:27.045Z,997.81
2023-03-30T04:34:27.056Z,997.69
2023-03-30T04:35:27.027Z,997.74
2023-03-30T04:36:27.023Z,997.74
2023-03-30T04:37:26.997Z,997.70
2023-03-30T04:38:26.993Z,997.71
2023-03-30T04:39:26.975Z,997.63
2023-03-30T04:40:26.992Z,997.64
2023-03-30T04:41:26.954Z,997.65
2023-03-30T04:42:26.960Z,997.65
2023-03-30T04:43:26.929Z,997.59
2023-03-30T04:44:26.929Z,997.61
2023-03-30T04:45:26.906Z,997.58
2023-03-30T04:46:26.902Z,997.62
2023-03-30T04:47:26.936Z,997.62
2023-03-30T04:48:26.912Z,997.63
2023-03-30T04:49:26.869Z,997.57
2023-03-30T04:50:26.855Z,997.52
2023-03-30T04:51:26.841Z,997.52
2023-03-30T04:52:26.831Z,997.48
2023-03-30T04:53:26.818Z,997.42
2023-03-30T04:54:26.846Z,997.37
2023-03-30T04:55:26.792Z,997.39
2023-03-30T04:56:26.819Z,997.36
2023-03-30T04:57:26.861Z,997.29
2023-03-30T04:58:26.766Z,997.39
2023-03-30T04:59:26.749Z,997.37
2023-03-30T05:00:26.758Z,997.38
2023-03-30T05:01:26.867Z,997.35
2023-03-30T05:02:26.772Z,997.35
2023-03-30T05:03:26.895Z,997.33
2023-03-30T05:04:26.705Z,997.37
2023-03-30T05:05:26.679Z,997.34
2023-03-30T05:06:26.694Z,997.41
2023-03-30T05:07:26.660Z,997.44
2023-03-30T05:08:26.657Z,997.44
2023-03-30T05:09:26.642Z,997.45
2023-03-30T05:10:26.639Z,997.45
2023-03-30T05:11:26.621Z,997.44
2023-03-30T05:12:26.605Z,997.44
2023-03-30T05:13:26.605Z,997.38
2023-03-30T05:14:26.604Z,997.44
2023-03-30T05:15:26.592Z,997.42
2023-03-30T05:16:26.591Z,997.41
2023-03-30T05:17:26.583Z,997.48
2023-03-30T05:18:26.538Z,997.43
2023-03-30T05:19:27.053Z,997.40
2023-03-30T05:20:26.532Z,997.47
2023-03-30T05:21:26.502Z,997.39
2023-03-30T05:22:26.488Z,997.45
2023-03-30T05:23:26.518Z,997.43
2023-03-30T05:24:26.502Z,997.48
2023-03-30T05:25:26.456Z,997.53
2023-03-30T05:26:26.502Z,997.58
2023-03-30T05:27:26.440Z,997.48
2023-03-30T05:28:26.430Z,997.50
2023-03-30T05:29:26.418Z,997.55
2023-03-30T05:30:26.400Z,997.55
2023-03-30T05:31:27.061Z,997.51
2023-03-30T05:32:26.406Z,997.54
2023-03-30T05:33:26.366Z,997.54
2023-03-30T05:34:26.365Z,997.60
2023-03-30T05:35:26.363Z,997.52
2023-03-30T05:36:26.332Z,997.51
2023-03-30T05:37:26.332Z,997.56
2023-03-30T05:38:26.321Z,997.53
2023-03-30T05:39:26.304Z,997.54
2023-03-30T05:40:26.286Z,997.51
2023-03-30T05:41:26.281Z,997.52
2023-03-30T05:42:26.263Z,997.51
2023-03-30T05:43:26.254Z,997.53
2023-03-30T05:44:26.242Z,997.48
2023-03-30T05:45:26.232Z,997.47
2023-03-30T05:46:26.268Z,997.49
2023-03-30T05:47:26.236Z,997.47
2023-03-30T05:48:26.199Z,997.53
2023-03-30T05:49:26.181Z,997.59
2023-03-30T05:50:26.173Z,997.52
2023-03-30T05:51:26.188Z,997.54
2023-03-30T05:52:26.151Z,997.58
2023-03-30T05:53:26.161Z,997.54
2023-03-30T05:54:26.130Z,997.52
2023-03-30T05:55:26.113Z,997.56
2023-03-30T05:56:26.100Z,997.51
2023-03-30T05:57:26.159Z,997.52
2023-03-30T05:58:26.097Z,997.54
2023-03-30T05:59:26.078Z,997.50
2023-03-30T06:00:26.076Z,997.55
2023-03-30T06:01:26.050Z,997.52
2023-03-30T06:02:26.102Z,997.49
2023-03-30T06:03:26.132Z,997.54
2023-03-30T06:04:26.058Z,997.53
2023-03-30T06:05:26.012Z,997.49
2023-03-30T06:06:25.989Z,997.51
2023-03-30T06:07:26.012Z,997.45
2023-03-30T06:08:25.968Z,997.47
2023-03-30T06:09:25.963Z,997.51
2023-03-30T06:10:25.946Z,997.55
2023-03-30T06:11:25.932Z,997.52
2023-03-30T06:12:25.923Z,997.54
2023-03-30T06:13:25.928Z,997.57
2023-03-30T06:14:25.908Z,997.55
2023-03-30T06:15:25.895Z,997.60
2023-03-30T06:16:25.914Z,997.55
2023-03-30T06:17:25.967Z,997.69
2023-03-30T06:18:25.858Z,997.70
2023-03-30T06:19:25.856Z,997.66
2023-03-30T06:20:25.833Z,997.67
2023-03-30T06:21:25.825Z,997.70
2023-03-30T06:22:25.809Z,997.67
2023-03-30T06:23:25.859Z,997.68
2023-03-30T06:24:25.794Z,997.80
2023-03-30T06:25:25.776Z,997.80
2023-03-30T06:26:25.772Z,997.80
2023-03-30T06:27:25.750Z,997.81
2023-03-30T06:28:25.747Z,997.85
2023-03-30T06:29:25.740Z,997.75
2023-03-30T06:30:25.713Z,997.85
2023-03-30T06:31:25.776Z,997.87
2023-03-30T06:32:25.699Z,997.88
2023-03-30T06:33:25.688Z,997.82
2023-03-30T06:34:25.683Z,997.84
2023-03-30T06:35:25.664Z,997.89
2023-03-30T06:36:44.666Z,997.94
2023-03-30T06:37:26.641Z,997.92
2023-03-30T06:38:25.663Z,997.95
2023-03-30T06:39:25.697Z,998.05
2023-03-30T06:40:25.631Z,998.13
2023-03-30T06:41:25.595Z,998.08
2023-03-30T06:42:25.573Z,998.07
2023-03-30T06:43:25.571Z,998.04
2023-03-30T06:44:25.556Z,998.04
2023-03-30T06:45:25.568Z,998.12
2023-03-30T06:46:25.609Z,998.06
2023-03-30T06:47:25.815Z,998.08
2023-03-30T06:48:25.515Z,998.07
2023-03-30T06:49:25.501Z,998.12
2023-03-30T06:50:25.491Z,998.12
2023-03-30T06:51:25.487Z,998.13
2023-03-30T06:52:25.472Z,998.09
2023-03-30T06:53:25.461Z,998.11
2023-03-30T06:54:25.443Z,998.16
2023-03-30T06:55:25.486Z,998.11
2023-03-30T06:56:25.469Z,998.13
2023-03-30T06:57:25.493Z,998.12
2023-03-30T06:58:25.410Z,998.13
2023-03-30T06:59:25.394Z,998.11
2023-03-30T07:00:25.381Z,998.14
2023-03-30T07:01:25.435Z,998.22
2023-03-30T07:02:25.410Z,998.13
2023-03-30T07:03:25.360Z,998.08
2023-03-30T07:04:25.365Z,998.19
2023-03-30T07:05:25.344Z,998.08
2023-03-30T07:06:25.311Z,998.07
2023-03-30T07:07:25.342Z,998.12
2023-03-30T07:08:25.287Z,998.05
2023-03-30T07:09:25.280Z,998.04
2023-03-30T07:10:25.294Z,998.01
2023-03-30T07:11:25.293Z,997.99
2023-03-30T07:12:25.263Z,998.01
2023-03-30T07:13:25.267Z,997.95
2023-03-30T07:14:25.245Z,997.98
2023-03-30T07:15:25.245Z,997.98
2023-03-30T07:16:25.270Z,998.02
2023-03-30T07:17:26.982Z,997.96
2023-03-30T07:18:25.204Z,998.07
2023-03-30T07:19:25.186Z,997.98
2023-03-30T07:20:25.164Z,998.04
2023-03-30T07:21:25.138Z,998.01
2023-03-30T07:22:25.125Z,997.98
2023-03-30T07:23:25.150Z,998.03
2023-03-30T07:24:25.108Z,998.07
2023-03-30T07:25:25.124Z,998.13
2023-03-30T07:26:25.079Z,998.14
2023-03-30T07:27:25.628Z,998.08
2023-03-30T07:28:25.093Z,998.09
2023-03-30T07:29:25.052Z,998.13
2023-03-30T07:30:25.064Z,998.09
2023-03-30T07:31:25.061Z,998.12
2023-03-30T07:32:25.148Z,998.19
2023-03-30T07:33:25.057Z,998.13
2023-03-30T07:34:25.013Z,998.08
2023-03-30T07:35:24.980Z,998.07
2023-03-30T07:36:25.008Z,998.10
2023-03-30T07:37:24.961Z,998.15
2023-03-30T07:38:24.944Z,998.12
2023-03-30T07:39:33.959Z,998.17
2023-03-30T07:40:24.990Z,998.13
2023-03-30T07:41:24.908Z,998.18
2023-03-30T07:42:24.911Z,998.22
2023-03-30T07:43:24.914Z,998.21
2023-03-30T07:44:24.893Z,998.28
2023-03-30T07:45:24.956Z,998.27
2023-03-30T07:46:24.960Z,998.27
2023-03-30T07:47:24.872Z,998.21
2023-03-30T07:48:24.829Z,998.33
2023-03-30T07:49:24.862Z,998.23
2023-03-30T07:50:24.852Z,998.28
2023-03-30T07:51:25.927Z,998.20
2023-03-30T07:52:24.792Z,998.28
2023-03-30T07:53:24.772Z,998.26
2023-03-30T07:54:24.764Z,998.17
2023-03-30T07:55:24.746Z,998.26
2023-03-30T07:56:24.735Z,998.23
2023-03-30T07:57:24.832Z,998.27
2023-03-30T07:58:24.736Z,998.19
2023-03-30T07:59:24.726Z,998.31
2023-03-30T08:18:06.190Z,998.45
2023-03-30T08:19:04.732Z,998.45
2023-03-30T08:20:04.713Z,998.50
2023-03-30T08:21:05.106Z,998.47
2023-03-30T08:22:04.701Z,998.57
2023-03-30T08:23:04.672Z,998.56
2023-03-30T08:24:04.662Z,998.52
2023-03-30T08:25:04.686Z,998.58
2023-03-30T08:26:04.645Z,998.51
2023-03-30T08:27:04.645Z,998.53
2023-03-30T08:28:04.622Z,998.55
2023-03-30T08:29:04.617Z,998.55
2023-03-30T08:30:04.596Z,998.55
2023-03-30T08:31:04.829Z,998.55
2023-03-30T08:32:04.666Z,998.58
2023-03-30T08:33:04.625Z,998.65
2023-03-30T08:34:04.565Z,998.55
2023-03-30T08:35:04.541Z,998.51
2023-03-30T08:36:04.613Z,998.49
2023-03-30T08:37:04.538Z,998.47
2023-03-30T08:38:04.500Z,998.64
2023-03-30T08:39:04.496Z,998.52
2023-03-30T08:40:04.493Z,998.52
2023-03-30T08:41:04.631Z,998.48
2023-03-30T08:42:04.476Z,998.53
2023-03-30T08:43:05.081Z,998.56
2023-03-30T08:44:04.446Z,998.56
2023-03-30T08:45:04.426Z,998.50
2023-03-30T08:46:04.470Z,998.64
2023-03-30T08:47:04.451Z,998.57
2023-03-30T08:48:04.422Z,998.56
2023-03-30T08:49:04.387Z,998.54
2023-03-30T08:50:04.398Z,998.51
2023-03-30T08:51:04.498Z,998.62
2023-03-30T08:52:04.364Z,998.55
2023-03-30T08:53:04.349Z,998.56
2023-03-30T08:54:04.331Z,998.48
2023-03-30T08:55:04.318Z,998.53
2023-03-30T08:56:04.306Z,998.47
2023-03-30T08:57:04.336Z,998.57
2023-03-30T08:58:04.277Z,998.57
2023-03-30T08:59:04.295Z,998.57
2023-03-30T09:00:04.257Z,998.64
2023-03-30T09:01:04.471Z,998.57
2023-03-30T09:02:04.255Z,998.43
2023-03-30T09:03:04.322Z,998.58
2023-03-30T09:04:04.210Z,998.61
2023-03-30T09:05:04.268Z,998.51
2023-03-30T09:06:04.215Z,998.50
2023-03-30T09:07:04.186Z,998.51
2023-03-30T09:08:04.168Z,998.49
2023-03-30T09:09:04.176Z,998.48
2023-03-30T09:10:04.146Z,998.54
2023-03-30T09:11:04.358Z,998.38
2023-03-30T09:12:04.121Z,998.53
2023-03-30T09:13:04.136Z,998.53
2023-03-30T09:14:04.093Z,998.51
2023-03-30T09:15:04.088Z,998.49
2023-03-30T09:16:04.086Z,998.59
2023-03-30T09:17:04.126Z,998.51
2023-03-30T09:18:04.149Z,998.53
2023-03-30T09:19:04.055Z,998.51
2023-03-30T09:20:04.026Z,998.56
2023-03-30T09:21:04.247Z,998.59
2023-03-30T09:22:04.032Z,998.62
2023-03-30T09:23:04.028Z,998.58
2023-03-30T09:24:03.994Z,998.59
2023-03-30T09:25:03.979Z,998.54
2023-03-30T09:26:03.963Z,998.61
2023-03-30T09:27:03.968Z,998.61
2023-03-30T09:28:03.959Z,998.57
2023-03-30T09:29:03.927Z,998.58
2023-03-30T09:30:03.930Z,998.67
2023-03-30T09:31:04.266Z,998.65
2023-03-30T09:32:03.971Z,998.62
2023-03-30T09:33:03.950Z,998.70
2023-03-30T09:34:06.265Z,998.72
2023-03-30T09:35:03.866Z,998.78
2023-03-30T09:36:04.115Z,998.68
2023-03-30T09:37:03.848Z,998.86
2023-03-30T09:38:03.849Z,998.86
2023-03-30T09:39:03.832Z,998.91
2023-03-30T09:40:03.807Z,998.91
2023-03-30T09:41:03.914Z,998.88
2023-03-30T09:42:03.780Z,998.88
2023-03-30T09:43:03.797Z,998.81
2023-03-30T09:44:03.762Z,998.89
2023-03-30T09:45:03.745Z,998.90
2023-03-30T09:46:04.040Z,998.96
2023-03-30T09:47:03.738Z,998.92
2023-03-30T09:48:03.771Z,998.84
2023-03-30T09:49:03.725Z,998.96
2023-03-30T09:50:03.688Z,998.89
2023-03-30T09:51:03.691Z,998.89
2023-03-30T09:52:03.694Z,998.96
2023-03-30T09:53:03.685Z,998.95
2023-03-30T09:54:03.721Z,998.98
2023-03-30T09:55:03.648Z,998.98
2023-03-30T09:56:03.823Z,998.88
2023-03-30T09:57:03.644Z,998.92
2023-03-30T09:58:03.636Z,998.90
2023-03-30T09:59:03.589Z,998.91
2023-03-30T10:00:03.584Z,998.95
2023-03-30T10:01:03.582Z,998.88
2023-03-30T10:02:03.552Z,998.95
2023-03-30T10:03:03.725Z,998.95
2023-03-30T10:04:03.711Z,998.95
2023-03-30T10:05:03.611Z,998.99
2023-03-30T10:06:03.797Z,998.90
2023-03-30T10:07:16.524Z,998.98
2023-03-30T10:08:04.493Z,998.97
2023-03-30T10:09:03.477Z,999.00
2023-03-30T10:10:03.504Z,998.99
2023-03-30T10:11:03.460Z,998.99
2023-03-30T10:12:03.450Z,999.02
2023-03-30T10:13:03.432Z,998.94
2023-03-30T10:14:03.431Z,999.02
2023-03-30T10:15:03.422Z,998.98
2023-03-30T10:16:03.817Z,998.96
2023-03-30T10:17:03.404Z,998.98
2023-03-30T10:18:03.439Z,999.00
2023-03-30T10:19:03.369Z,999.05
2023-03-30T10:20:13.244Z,998.93
2023-03-30T10:21:04.357Z,998.95
2023-03-30T10:22:03.335Z,998.99
2023-03-30T10:23:03.326Z,998.97
2023-03-30T10:24:03.317Z,999.09
2023-03-30T10:25:03.336Z,999.07
2023-03-30T10:26:04.012Z,999.04
2023-03-30T10:27:03.298Z,998.99
2023-03-30T10:28:03.263Z,998.99
2023-03-30T10:29:03.262Z,999.10
2023-03-30T10:30:03.255Z,999.16
2023-03-30T10:31:03.281Z,999.09
2023-03-30T10:32:03.278Z,999.09
2023-03-30T10:33:03.244Z,999.00
2023-03-30T10:34:03.231Z,999.03
2023-03-30T10:35:03.191Z,999.01
2023-03-30T10:36:03.470Z,998.96
2023-03-30T10:37:03.210Z,998.96
2023-03-30T10:38:03.173Z,999.04
2023-03-30T10:39:03.141Z,999.04
2023-03-30T10:40:03.126Z,998.98
2023-03-30T10:41:03.118Z,998.99
2023-03-30T10:42:03.154Z,999.05
2023-03-30T10:43:03.117Z,999.12
2023-03-30T10:44:03.090Z,999.22
2023-03-30T10:45:03.092Z,999.26
2023-03-30T10:46:16.317Z,999.35
2023-03-30T10:47:04.071Z,999.36
2023-03-30T10:48:03.130Z,999.27
2023-03-30T10:49:03.028Z,999.32
2023-03-30T10:50:03.019Z,999.29
2023-03-30T10:51:03.010Z,999.32
2023-03-30T10:52:03.013Z,999.27
2023-03-30T10:53:02.984Z,999.27
2023-03-30T10:54:02.987Z,999.32
2023-03-30T10:55:02.976Z,999.20
2023-03-30T10:56:03.119Z,999.24
2023-03-30T10:57:02.990Z,999.20
2023-03-30T10:58:02.962Z,999.20
2023-03-30T10:59:02.937Z,999.27
2023-03-30T11:00:02.918Z,999.22
2023-03-30T11:01:02.951Z,999.14
2023-03-30T11:02:02.880Z,999.28
2023-03-30T11:03:03.035Z,999.31
2023-03-30T11:04:16.138Z,999.21
2023-03-30T11:05:03.866Z,999.32
2023-03-30T11:06:03.050Z,999.27
2023-03-30T11:07:02.826Z,999.36
2023-03-30T11:08:02.834Z,999.28
2023-03-30T11:09:02.810Z,999.39
2023-03-30T11:10:02.804Z,999.32
2023-03-30T11:11:02.779Z,999.41
2023-03-30T11:12:02.779Z,999.35
2023-03-30T11:13:02.757Z,999.36
2023-03-30T11:14:02.780Z,999.46
2023-03-30T11:15:02.745Z,999.42
2023-03-30T11:16:02.943Z,999.33
2023-03-30T11:17:02.772Z,999.40
2023-03-30T11:18:02.778Z,999.37
2023-03-30T11:19:02.761Z,999.38
2023-03-30T11:20:02.680Z,999.29
2023-03-30T11:21:02.677Z,999.34
2023-03-30T11:22:02.668Z,999.27
2023-03-30T11:23:02.647Z,999.34
2023-03-30T11:24:02.629Z,999.45
2023-03-30T11:25:02.631Z,999.38
2023-03-30T11:26:02.909Z,999.37
2023-03-30T11:27:02.609Z,999.39
2023-03-30T11:28:02.592Z,999.44
2023-03-30T11:29:02.585Z,999.43
2023-03-30T11:30:02.584Z,999.45
2023-03-30T11:31:02.550Z,999.33
2023-03-30T11:32:02.568Z,999.28
2023-03-30T11:33:02.572Z,999.30
2023-03-30T11:34:02.517Z,999.30
2023-03-30T11:35:02.519Z,999.35
2023-03-30T11:36:02.801Z,999.41
2023-03-30T11:37:02.481Z,999.30
2023-03-30T11:38:02.490Z,999.38
2023-03-30T11:39:02.478Z,999.29
2023-03-30T11:40:02.461Z,999.31
2023-03-30T11:41:02.457Z,999.35
2023-03-30T11:42:02.439Z,999.35
2023-03-30T11:43:02.419Z,999.33
2023-03-30T11:44:02.423Z,999.30
2023-03-30T11:45:02.402Z,999.41
2023-03-30T11:46:04.108Z,999.35
2023-03-30T11:47:02.396Z,999.37
2023-03-30T11:48:02.468Z,999.26
2023-03-30T11:49:02.366Z,999.40
2023-03-30T11:50:02.361Z,999.40
2023-03-30T11:51:02.400Z,999.47
2023-03-30T11:52:03.095Z,999.39
2023-03-30T11:53:02.323Z,999.49
2023-03-30T11:54:02.294Z,999.48
2023-03-30T11:55:04.064Z,999.44
2023-03-30T11:56:02.457Z,999.45
2023-03-30T11:57:02.318Z,999.49
2023-03-30T11:58:04.942Z,999.43
2023-03-30T11:59:02.254Z,999.45
2023-03-30T12:00:02.225Z,999.55
2023-03-30T12:01:02.372Z,999.51
2023-03-30T12:02:02.233Z,999.47
2023-03-30T12:03:02.410Z,999.50
2023-03-30T12:04:02.385Z,999.42
2023-03-30T12:05:02.239Z,999.50
2023-03-30T12:06:02.328Z,999.44
2023-03-30T12:07:02.159Z,999.56
2023-03-30T12:08:02.139Z,999.41
2023-03-30T12:09:02.145Z,999.54
2023-03-30T12:10:05.297Z,999.48
2023-03-30T12:11:02.310Z,999.36
2023-03-30T12:12:02.109Z,999.44
2023-03-30T12:13:02.083Z,999.46
2023-03-30T12:14:02.090Z,999.44
2023-03-30T12:15:02.074Z,999.46
2023-03-30T12:16:02.245Z,999.46
2023-03-30T12:17:02.036Z,999.43
2023-03-30T12:18:02.119Z,999.43
2023-03-30T12:19:02.021Z,999.40
2023-03-30T12:20:02.010Z,999.50
2023-03-30T12:21:02.023Z,999.35
2023-03-30T12:22:01.979Z,999.38
2023-03-30T12:23:01.976Z,999.41
2023-03-30T12:24:01.990Z,999.44
2023-03-30T12:25:01.947Z,999.37
2023-03-30T12:26:02.088Z,999.34
2023-03-30T12:27:04.997Z,999.38
2023-03-30T12:28:01.927Z,999.31
2023-03-30T12:29:26.342Z,999.38
2023-03-30T12:30:03.758Z,999.28
2023-03-30T12:31:01.875Z,999.36
2023-03-30T12:32:01.970Z,999.39
2023-03-30T12:33:01.935Z,999.42
2023-03-30T12:34:01.997Z,999.42
2023-03-30T12:35:01.867Z,999.34
2023-03-30T12:36:01.949Z,999.39
2023-03-30T12:37:01.828Z,999.40
2023-03-30T12:38:01.815Z,999.36
2023-03-30T12:39:01.789Z,999.31
2023-03-30T12:40:01.788Z,999.39
2023-03-30T12:41:01.770Z,999.33
2023-03-30T12:42:01.852Z,999.34
2023-03-30T12:43:01.760Z,999.37
2023-03-30T12:44:01.733Z,999.31
2023-03-30T12:45:01.741Z,999.28
2023-03-30T12:46:01.821Z,999.30